Terminal Aerodrome Forecast
Issued by NWS

Home | Current Version | Previous Version | Text Only | Print | Product List | Glossary On
Versions: 1 2 3 4 5 6 7 8 9 10 11 12 13 14
000
FTUS46 KLOX 221737
TAFSBA
TAF
KSBA 221737Z 2218/2318 26007KT P6SM SKC
     FM222000 28014KT P6SM SKC
     FM222200 29015G25KT P6SM SCT060
     FM230300 30012KT P6SM VCSH BKN070 WS010/34030KT
     FM230800 33009KT P6SM SCT080=

USA.gov is the U.S. government's official web portal to all federal, state and local government web resources and services.